Time;durP1;ratioP1;P1;durP2;ratioP2;P2;SDS_P1;SDS_P2;PMS_P1;PMS_P2;Temp;Humidity;BMP_temperature;BMP_pressure;BME280_temperature;BME280_humidity;BME280_pressure;Samples;Min_cycle;Max_cycle;Signal;HPM_P1;HPM_P2
2022/06/26 00:00:53;;;;;;;;;;;;;;;25.08;54.21;99364.72;2076493;28;20004;-44
2022/06/26 00:01:53;;;;;;;;;;;;;;;25.08;54.26;99367.47;2076956;28;19921;-45
2022/06/26 00:02:53;;;;;;;;;;;;;;;25.08;54.21;99362.81;2076353;28;19963;-48
2022/06/26 00:03:54;;;;;;;;;;;;;;;25.08;54.05;99357.28;2078336;28;19952;-44
2022/06/26 00:04:54;;;;;;;;;;;;;;;25.07;53.97;99361.13;2077398;28;19925;-45
2022/06/26 00:05:55;;;;;;;;;;;;;;;25.08;54.09;99362.81;2077512;28;19917;-46
2022/06/26 00:06:55;;;;;;;;;;;;;;;25.08;54.14;99365.56;2075018;28;20003;-44
2022/06/26 00:07:56;;;;;;;;;;;;;;;25.07;54.18;99369.38;2073143;28;19945;-46
2022/06/26 00:08:56;;;;;;;;;;;;;;;25.08;54.25;99379.34;2078286;28;20337;-44
2022/06/26 00:09:56;;;;;;;;;;;;;;;25.08;54.04;99381.25;2069920;28;19944;-45
2022/06/26 00:10:57;;;;;;;;;;;;;;;25.07;54.19;99388.69;2076202;28;19917;-44
2022/06/26 00:11:57;;;;;;;;;;;;;;;25.07;54.27;99391.44;2077116;28;20816;-44
2022/06/26 00:12:58;;;;;;;;;;;;;;;25.08;53.97;99390.38;2067318;28;19952;-45
2022/06/26 00:13:58;;;;;;;;;;;;;;;25.08;54.12;99389.53;2068761;28;19917;-44
2022/06/26 00:14:59;;;;;;;;;;;;;;;25.07;54.14;99388.69;2073638;28;19963;-44
2022/06/26 00:15:59;;;;;;;;;;;;;;;25.08;54.06;99390.38;2078786;28;19916;-43
2022/06/26 00:16:59;;;;;;;;;;;;;;;25.08;54.09;99392.28;2074431;28;20014;-43
2022/06/26 00:18:00;;;;;;;;;;;;;;;25.07;54.22;99399.72;2077036;28;19967;-44
2022/06/26 00:19:00;;;;;;;;;;;;;;;25.08;54.12;99401.41;2071636;28;19917;-44
2022/06/26 00:20:00;;;;;;;;;;;;;;;25.08;54.27;99400.56;2080062;28;20019;-44
2022/06/26 00:21:01;;;;;;;;;;;;;;;25.06;54.11;99398.00;2079344;28;19916;-44
2022/06/26 00:22:05;;;;;;;;;;;;;;;25.07;54.03;99399.72;2072058;28;19947;-43
2022/06/26 00:23:06;;;;;;;;;;;;;;;25.07;54.03;99398.88;2077957;28;20405;-45
2022/06/26 00:24:06;;;;;;;;;;;;;;;25.07;54.26;99396.97;2077741;28;20231;-44
2022/06/26 00:25:08;;;;;;;;;;;;;;;25.06;54.18;99395.25;2072600;28;19913;-44
2022/06/26 00:26:09;;;;;;;;;;;;;;;25.06;54.29;99392.47;2072194;28;20390;-45
2022/06/26 00:27:09;;;;;;;;;;;;;;;25.06;54.18;99386.97;2076474;28;20019;-46
2022/06/26 00:28:09;;;;;;;;;;;;;;;25.06;54.18;99392.47;2079510;28;19939;-43
2022/06/26 00:29:09;;;;;;;;;;;;;;;25.06;54.22;99392.47;2075985;28;19944;-45
2022/06/26 00:30:10;;;;;;;;;;;;;;;25.06;54.23;99389.72;2077867;28;19992;-45
2022/06/26 00:31:10;;;;;;;;;;;;;;;25.05;54.14;99390.78;2077549;28;20323;-45
2022/06/26 00:32:10;;;;;;;;;;;;;;;25.06;54.18;99397.16;2075909;28;19923;-45
2022/06/26 00:33:11;;;;;;;;;;;;;;;25.06;54.14;99403.50;2076780;28;19909;-44
2022/06/26 00:34:11;;;;;;;;;;;;;;;25.05;54.08;99399.06;2074458;28;19917;-45
2022/06/26 00:35:12;;;;;;;;;;;;;;;25.06;54.20;99403.50;2077497;28;19913;-43
2022/06/26 00:36:12;;;;;;;;;;;;;;;25.06;54.16;99402.66;2079226;28;20483;-45
2022/06/26 00:37:12;;;;;;;;;;;;;;;25.06;54.18;99400.75;2075918;28;19935;-44
2022/06/26 00:38:13;;;;;;;;;;;;;;;25.06;54.13;99398.00;2083574;28;20050;-44
2022/06/26 00:39:14;;;;;;;;;;;;;;;25.05;54.16;99393.56;2080752;28;20683;-44
2022/06/26 00:40:14;;;;;;;;;;;;;;;25.06;54.46;99392.47;2071435;28;19964;-44
2022/06/26 00:41:14;;;;;;;;;;;;;;;25.05;54.33;99401.81;2075041;28;19920;-43
2022/06/26 00:42:15;;;;;;;;;;;;;;;25.06;54.13;99399.91;2080184;28;19927;-45
2022/06/26 00:43:15;;;;;;;;;;;;;;;25.05;54.12;99401.81;2077816;28;20353;-44
2022/06/26 00:44:17;;;;;;;;;;;;;;;25.04;54.23;99400.13;2075778;28;19916;-44
2022/06/26 00:45:17;;;;;;;;;;;;;;;25.05;54.23;99404.59;2076189;28;19967;-43
2022/06/26 00:46:17;;;;;;;;;;;;;;;25.06;54.35;99408.19;2077717;28;19920;-44
2022/06/26 00:47:18;;;;;;;;;;;;;;;25.06;54.22;99406.28;2077663;28;19974;-45
2022/06/26 00:48:18;;;;;;;;;;;;;;;25.05;54.13;99396.31;2073552;28;20290;-44
2022/06/26 00:49:19;;;;;;;;;;;;;;;25.05;54.19;99401.81;2071649;28;20005;-44
2022/06/26 00:50:19;;;;;;;;;;;;;;;25.05;54.23;99401.81;2076710;28;19942;-45
2022/06/26 00:51:22;;;;;;;;;;;;;;;25.05;54.22;99401.81;2076600;28;20493;-47
2022/06/26 00:52:23;;;;;;;;;;;;;;;25.05;54.18;99401.81;2078520;28;19923;-43
2022/06/26 00:53:23;;;;;;;;;;;;;;;25.06;54.35;99402.66;2075659;28;19921;-46
2022/06/26 00:54:24;;;;;;;;;;;;;;;25.05;54.22;99412.00;2076404;28;20010;-45
2022/06/26 00:55:25;;;;;;;;;;;;;;;25.05;54.33;99404.59;2076886;28;20002;-46
2022/06/26 00:56:25;;;;;;;;;;;;;;;25.05;54.38;99412.00;2077976;28;19917;-45
2022/06/26 00:57:26;;;;;;;;;;;;;;;25.06;54.41;99403.50;2075153;28;19913;-45
2022/06/26 00:58:27;;;;;;;;;;;;;;;25.05;54.22;99409.25;2078270;28;19959;-45
2022/06/26 00:59:27;;;;;;;;;;;;;;;25.05;54.16;99412.84;2076918;28;20240;-46
2022/06/26 01:00:28;;;;;;;;;;;;;;;25.05;54.36;99418.38;2075882;28;19917;-44
2022/06/26 01:01:28;;;;;;;;;;;;;;;25.04;54.21;99422.19;2079114;28;19916;-43
2022/06/26 01:02:28;;;;;;;;;;;;;;;25.04;54.53;99413.94;2070542;28;20020;-44
2022/06/26 01:03:29;;;;;;;;;;;;;;;25.04;54.24;99413.94;2074841;28;19978;-45
2022/06/26 01:04:29;;;;;;;;;;;;;;;25.03;54.38;99415.81;2075001;28;20189;-44
2022/06/26 01:05:29;;;;;;;;;;;;;;;25.04;54.23;99413.94;2071103;28;19917;-45
2022/06/26 01:06:31;;;;;;;;;;;;;;;25.03;54.44;99409.44;2078399;28;20586;-44
2022/06/26 01:07:31;;;;;;;;;;;;;;;25.04;54.24;99411.16;2078015;28;19917;-44
2022/06/26 01:08:31;;;;;;;;;;;;;;;25.03;54.29;99406.69;2071325;28;20541;-44
2022/06/26 01:09:33;;;;;;;;;;;;;;;25.02;54.32;99403.09;2078106;28;19995;-44
2022/06/26 01:10:33;;;;;;;;;;;;;;;25.03;54.36;99403.94;2077587;28;19921;-46
2022/06/26 01:11:33;;;;;;;;;;;;;;;25.03;54.30;99403.94;2076872;28;19917;-43
2022/06/26 01:12:34;;;;;;;;;;;;;;;25.02;54.29;99399.50;2070920;28;19913;-44
2022/06/26 01:13:34;;;;;;;;;;;;;;;25.03;54.30;99392.91;2072550;28;20323;-44
2022/06/26 01:14:35;;;;;;;;;;;;;;;25.02;54.43;99397.56;2079913;28;20005;-44
2022/06/26 01:15:35;;;;;;;;;;;;;;;25.02;54.48;99399.50;2072857;28;19925;-44
2022/06/26 01:16:36;;;;;;;;;;;;;;;25.02;54.22;99397.56;2075438;28;19925;-43
2022/06/26 01:17:38;;;;;;;;;;;;;;;25.02;54.22;99399.50;2078074;28;19952;-45
2022/06/26 01:18:38;;;;;;;;;;;;;;;25.02;54.37;99388.47;2071289;28;19924;-44
2022/06/26 01:19:39;;;;;;;;;;;;;;;25.01;54.27;99395.00;2076585;28;20255;-47
2022/06/26 01:20:39;;;;;;;;;;;;;;;25.01;54.28;99393.13;2077116;28;19995;-46
2022/06/26 01:21:40;;;;;;;;;;;;;;;25.02;54.28;99391.22;2079536;28;19904;-45
2022/06/26 01:22:40;;;;;;;;;;;;;;;25.02;54.33;99391.22;2081529;28;20450;-44
2022/06/26 01:23:41;;;;;;;;;;;;;;;25.02;54.66;99397.56;2083258;28;19909;-44
2022/06/26 01:24:41;;;;;;;;;;;;;;;25.01;54.25;99398.66;2077933;28;19921;-44
2022/06/26 01:25:43;;;;;;;;;;;;;;;25.01;54.40;99389.50;2076257;28;20413;-44
2022/06/26 01:26:43;;;;;;;;;;;;;;;25.02;54.53;99385.69;2077182;28;19963;-44
2022/06/26 01:27:44;;;;;;;;;;;;;;;25.01;54.49;99390.38;2076230;28;19916;-44
2022/06/26 01:28:44;;;;;;;;;;;;;;;25.02;54.26;99380.19;2076769;28;20155;-44
2022/06/26 01:29:44;;;;;;;;;;;;;;;25.01;54.37;99383.97;2075078;28;20012;-46
2022/06/26 01:30:45;;;;;;;;;;;;;;;25.02;54.21;99380.19;2074629;28;19917;-44
2022/06/26 01:31:45;;;;;;;;;;;;;;;25.01;54.39;99371.06;2084847;28;19916;-44
2022/06/26 01:32:45;;;;;;;;;;;;;;;25.01;54.45;99367.44;2075147;28;19916;-44
2022/06/26 01:33:46;;;;;;;;;;;;;;;25.01;54.31;99367.44;2073574;28;19938;-44
2022/06/26 01:34:47;;;;;;;;;;;;;;;25.01;54.45;99361.94;2075621;28;20022;-45
2022/06/26 01:35:47;;;;;;;;;;;;;;;25.00;54.40;99365.75;2072758;28;19917;-43
2022/06/26 01:36:47;;;;;;;;;;;;;;;25.01;54.31;99356.41;2077992;28;20638;-44
2022/06/26 01:37:48;;;;;;;;;;;;;;;25.01;54.37;99361.94;2075583;28;19917;-43
2022/06/26 01:38:48;;;;;;;;;;;;;;;25.01;54.37;99361.94;2072587;28;19916;-44
2022/06/26 01:39:49;;;;;;;;;;;;;;;25.01;54.50;99359.16;2067671;28;20295;-43
2022/06/26 01:40:51;;;;;;;;;;;;;;;25.02;54.40;99366.41;2069261;28;19922;-43
2022/06/26 01:41:51;;;;;;;;;;;;;;;25.01;54.55;99370.19;2077632;28;20453;-44
2022/06/26 01:42:51;;;;;;;;;;;;;;;25.00;54.30;99366.59;2073953;28;20134;-44
2022/06/26 01:43:51;;;;;;;;;;;;;;;25.00;54.34;99377.63;2077256;28;19916;-46
2022/06/26 01:44:52;;;;;;;;;;;;;;;25.01;54.31;99378.47;2075090;28;20016;-49
2022/06/26 01:45:53;;;;;;;;;;;;;;;25.01;54.32;99378.47;2075818;28;20477;-44
2022/06/26 01:46:53;;;;;;;;;;;;;;;24.99;54.44;99377.84;2076877;28;19917;-45
2022/06/26 01:47:54;;;;;;;;;;;;;;;25.00;54.46;99365.75;2074717;28;19927;-45
2022/06/26 01:48:55;;;;;;;;;;;;;;;25.00;54.32;99360.25;2071285;28;19917;-44
2022/06/26 01:49:55;;;;;;;;;;;;;;;25.00;54.33;99354.72;2075661;28;19928;-44
2022/06/26 01:50:57;;;;;;;;;;;;;;;25.00;54.33;99351.97;2075887;28;19921;-43
2022/06/26 01:51:57;;;;;;;;;;;;;;;24.98;54.56;99357.69;2071109;28;20004;-45
2022/06/26 01:52:57;;;;;;;;;;;;;;;24.99;54.36;99358.56;2076572;28;19966;-46
2022/06/26 01:53:57;;;;;;;;;;;;;;;24.98;54.47;99345.81;2075639;28;19921;-45
2022/06/26 01:54:58;;;;;;;;;;;;;;;24.99;54.31;99348.38;2070844;28;19916;-46
2022/06/26 01:55:58;;;;;;;;;;;;;;;24.99;54.42;99347.53;2073030;28;19955;-45
2022/06/26 01:56:58;;;;;;;;;;;;;;;24.99;54.34;99347.53;2076439;28;19925;-45
2022/06/26 01:58:02;;;;;;;;;;;;;;;24.98;54.44;99349.41;2073563;28;19967;-44
2022/06/26 01:59:02;;;;;;;;;;;;;;;24.99;54.55;99350.28;2076781;28;20299;-44
2022/06/26 02:00:06;;;;;;;;;;;;;;;24.99;54.46;99342.84;2078301;28;19917;-45
2022/06/26 02:01:08;;;;;;;;;;;;;;;24.99;54.27;99342.00;2077251;28;19929;-43
2022/06/26 02:02:08;;;;;;;;;;;;;;;24.99;54.47;99342.00;2069855;28;20315;-45
2022/06/26 02:03:09;;;;;;;;;;;;;;;24.99;54.38;99347.53;2072700;28;19980;-46
2022/06/26 02:04:12;;;;;;;;;;;;;;;24.99;54.31;99342.00;2072197;28;19927;-45
2022/06/26 02:05:13;;;;;;;;;;;;;;;24.99;54.56;99342.00;2075992;28;19956;-44
2022/06/26 02:06:13;;;;;;;;;;;;;;;24.98;54.51;99343.03;2073921;28;19920;-45
2022/06/26 02:07:13;;;;;;;;;;;;;;;24.98;54.57;99340.28;2071353;28;20235;-46
2022/06/26 02:08:14;;;;;;;;;;;;;;;24.98;54.29;99337.53;2072336;28;20124;-46
2022/06/26 02:14:35;;;;;;;;;;;;;;;24.99;54.38;99330.97;2071472;28;20011;-47
2022/06/26 02:15:35;;;;;;;;;;;;;;;24.98;54.57;99332.03;2077304;28;19925;-45
2022/06/26 02:16:35;;;;;;;;;;;;;;;24.98;54.57;99338.38;2076163;28;19927;-44
2022/06/26 02:17:36;;;;;;;;;;;;;;;24.99;54.35;99347.53;2076471;28;20273;-44
2022/06/26 02:18:37;;;;;;;;;;;;;;;24.99;54.39;99342.00;2075230;28;19972;-44
2022/06/26 02:19:37;;;;;;;;;;;;;;;24.99;54.29;99344.78;2076236;28;20022;-44
2022/06/26 02:20:38;;;;;;;;;;;;;;;24.98;54.43;99346.66;2077099;28;19917;-44
2022/06/26 02:21:39;;;;;;;;;;;;;;;24.98;54.44;99340.28;2074880;28;19966;-44
2022/06/26 02:22:40;;;;;;;;;;;;;;;24.98;54.58;99345.81;2074266;28;19920;-44
2022/06/26 02:23:41;;;;;;;;;;;;;;;24.99;54.59;99342.00;2077209;28;20773;-45
2022/06/26 02:24:44;;;;;;;;;;;;;;;24.98;54.34;99345.81;2073799;28;19917;-44
2022/06/26 02:25:44;;;;;;;;;;;;;;;24.98;54.34;99345.81;2076195;28;20012;-43
2022/06/26 02:26:45;;;;;;;;;;;;;;;24.98;54.61;99340.28;2076032;28;20537;-44
2022/06/26 02:27:45;;;;;;;;;;;;;;;24.97;54.47;99338.59;2077047;28;20242;-44
2022/06/26 02:28:46;;;;;;;;;;;;;;;24.97;54.50;99339.44;2076356;28;19919;-44
2022/06/26 02:29:46;;;;;;;;;;;;;;;24.97;54.41;99333.94;2076297;28;20577;-47
2022/06/26 02:30:47;;;;;;;;;;;;;;;24.98;54.62;99345.81;2070468;28;19909;-46
2022/06/26 02:31:48;;;;;;;;;;;;;;;24.97;54.66;99341.38;2066999;28;19943;-45
2022/06/26 02:32:48;;;;;;;;;;;;;;;24.97;54.56;99338.59;2064980;28;20434;-45
2022/06/26 02:33:48;;;;;;;;;;;;;;;24.96;54.50;99339.63;2068911;28;19943;-45
2022/06/26 02:34:49;;;;;;;;;;;;;;;24.96;54.57;99337.75;2074760;28;19962;-45
2022/06/26 02:35:49;;;;;;;;;;;;;;;24.96;54.61;99343.28;2077246;28;19917;-45
2022/06/26 02:36:49;;;;;;;;;;;;;;;24.96;54.57;99339.63;2075250;28;20172;-44
2022/06/26 02:37:50;;;;;;;;;;;;;;;24.96;54.46;99342.41;2076585;28;20392;-48
2022/06/26 02:38:50;;;;;;;;;;;;;;;24.96;54.63;99331.38;2073324;28;19924;-47
2022/06/26 02:39:51;;;;;;;;;;;;;;;24.95;54.57;99338.81;2077237;28;19917;-47
2022/06/26 02:40:51;;;;;;;;;;;;;;;24.96;54.56;99342.41;2077118;28;19927;-44
2022/06/26 02:41:52;;;;;;;;;;;;;;;24.96;54.44;99331.38;2078246;28;19916;-45
2022/06/26 02:42:52;;;;;;;;;;;;;;;24.96;54.57;99336.88;2075656;28;19913;-44
2022/06/26 02:43:52;;;;;;;;;;;;;;;24.95;54.47;99329.69;2072821;28;20343;-44
2022/06/26 02:44:53;;;;;;;;;;;;;;;24.95;54.52;99326.94;2077164;28;19922;-44
2022/06/26 02:45:53;;;;;;;;;;;;;;;24.95;54.65;99329.69;2076603;28;19916;-44
2022/06/26 02:46:54;;;;;;;;;;;;;;;24.95;54.42;99332.44;2075428;28;19927;-45
2022/06/26 02:47:54;;;;;;;;;;;;;;;24.96;54.46;99331.38;2078400;28;19928;-45
2022/06/26 02:48:54;;;;;;;;;;;;;;;24.97;54.54;99333.09;2076688;28;19982;-44
2022/06/26 02:49:55;;;;;;;;;;;;;;;24.96;54.59;99334.13;2074049;28;19991;-44
2022/06/26 02:50:55;;;;;;;;;;;;;;;24.96;54.58;99334.13;2076229;28;20365;-43
2022/06/26 02:51:55;;;;;;;;;;;;;;;24.96;54.75;99339.63;2073837;28;19956;-44
2022/06/26 02:52:56;;;;;;;;;;;;;;;24.96;54.52;99342.41;2074359;28;19917;-44
2022/06/26 02:53:56;;;;;;;;;;;;;;;24.95;54.72;99341.56;2078763;28;19954;-46
2022/06/26 02:54:57;;;;;;;;;;;;;;;24.96;54.67;99345.16;2075657;28;19924;-44
2022/06/26 02:55:57;;;;;;;;;;;;;;;24.96;54.54;99342.41;2079532;28;20264;-46
2022/06/26 02:56:57;;;;;;;;;;;;;;;24.96;54.59;99336.88;2074987;28;19921;-44
2022/06/26 02:57:58;;;;;;;;;;;;;;;24.96;54.68;99339.63;2073138;28;19921;-44
2022/06/26 02:58:59;;;;;;;;;;;;;;;24.96;54.64;99339.63;2074695;28;19940;-43
2022/06/26 03:00:00;;;;;;;;;;;;;;;24.95;54.71;99336.03;2076792;28;20718;-44
2022/06/26 03:01:00;;;;;;;;;;;;;;;24.96;54.67;99336.88;2075745;28;20004;-45
2022/06/26 03:02:00;;;;;;;;;;;;;;;24.96;54.65;99331.38;2077238;28;19920;-43
2022/06/26 03:03:01;;;;;;;;;;;;;;;24.96;54.51;99342.41;2074321;28;19921;-45
2022/06/26 03:04:02;;;;;;;;;;;;;;;24.95;54.50;99340.72;2078308;28;19982;-44
2022/06/26 03:05:02;;;;;;;;;;;;;;;24.95;54.53;99346.22;2072909;28;19999;-47
2022/06/26 03:06:02;;;;;;;;;;;;;;;24.95;54.61;99352.59;2076728;28;19924;-47
2022/06/26 03:07:03;;;;;;;;;;;;;;;24.94;54.53;99350.91;2080415;28;19916;-44
2022/06/26 03:08:04;;;;;;;;;;;;;;;24.94;54.67;99348.13;2079705;28;19917;-46
2022/06/26 03:09:04;;;;;;;;;;;;;;;24.94;54.67;99350.03;2085008;28;20098;-47
2022/06/26 03:10:05;;;;;;;;;;;;;;;24.94;54.55;99350.03;2078317;28;19924;-44
2022/06/26 03:11:05;;;;;;;;;;;;;;;24.94;54.62;99350.03;2082283;28;19913;-46
2022/06/26 03:12:06;;;;;;;;;;;;;;;24.93;54.70;99346.41;2075570;28;20150;-44
2022/06/26 03:13:06;;;;;;;;;;;;;;;24.93;54.57;99348.34;2075387;28;19920;-44
2022/06/26 03:14:07;;;;;;;;;;;;;;;24.94;54.60;99344.50;2076690;28;20270;-44
2022/06/26 03:15:07;;;;;;;;;;;;;;;24.94;54.78;99350.03;2080547;28;20312;-44
2022/06/26 03:16:08;;;;;;;;;;;;;;;24.93;54.78;99354.69;2075718;28;19917;-45
2022/06/26 03:17:08;;;;;;;;;;;;;;;24.94;54.60;99358.28;2077512;28;19941;-43
2022/06/26 03:18:08;;;;;;;;;;;;;;;24.93;54.68;99354.69;2075470;28;20175;-44
2022/06/26 03:19:09;;;;;;;;;;;;;;;24.92;54.54;99355.75;2076847;28;19967;-46
2022/06/26 03:20:11;;;;;;;;;;;;;;;24.92;54.78;99355.75;2075430;28;20332;-45
2022/06/26 03:21:11;;;;;;;;;;;;;;;24.93;54.61;99359.38;2074430;28;19923;-45
2022/06/26 03:22:11;;;;;;;;;;;;;;;24.93;54.60;99354.69;2076892;28;20279;-44
2022/06/26 03:23:11;;;;;;;;;;;;;;;24.93;54.79;99364.88;2075156;28;19925;-45
2022/06/26 03:24:12;;;;;;;;;;;;;;;24.93;54.84;99365.72;2076484;28;19916;-47
2022/06/26 03:25:12;;;;;;;;;;;;;;;24.93;54.76;99362.13;2069367;28;19983;-45
2022/06/26 03:26:12;;;;;;;;;;;;;;;24.93;54.73;99370.38;2071308;28;19919;-44
2022/06/26 03:27:13;;;;;;;;;;;;;;;24.92;54.77;99355.75;2068366;28;19921;-45
2022/06/26 03:28:13;;;;;;;;;;;;;;;24.92;54.60;99368.69;2072063;28;19917;-43
2022/06/26 03:29:13;;;;;;;;;;;;;;;24.92;54.78;99353.00;2070898;28;19917;-44
2022/06/26 03:30:14;;;;;;;;;;;;;;;24.93;54.61;99370.38;2070926;28;19975;-45
2022/06/26 03:31:15;;;;;;;;;;;;;;;24.93;54.66;99367.63;2071668;28;19917;-45
2022/06/26 03:32:15;;;;;;;;;;;;;;;24.92;54.60;99365.94;2072645;28;19909;-44
2022/06/26 03:33:15;;;;;;;;;;;;;;;24.93;54.53;99367.63;2075703;28;19921;-44
2022/06/26 03:34:16;;;;;;;;;;;;;;;24.92;54.59;99368.69;2076535;28;19917;-45
2022/06/26 03:35:16;;;;;;;;;;;;;;;24.91;54.60;99362.31;2070189;28;19963;-44
2022/06/26 03:36:17;;;;;;;;;;;;;;;24.91;54.60;99365.06;2073562;28;19916;-44
2022/06/26 03:37:18;;;;;;;;;;;;;;;24.92;54.85;99368.69;2069972;28;19921;-45
2022/06/26 03:38:18;;;;;;;;;;;;;;;24.93;54.71;99370.38;2075100;28;19909;-45
2022/06/26 03:39:18;;;;;;;;;;;;;;;24.92;54.62;99374.22;2069345;28;19920;-45
2022/06/26 03:40:19;;;;;;;;;;;;;;;24.92;54.74;99374.22;2071284;28;19909;-45
2022/06/26 03:41:20;;;;;;;;;;;;;;;24.93;54.77;99370.38;2071406;28;19916;-47
2022/06/26 03:42:20;;;;;;;;;;;;;;;24.92;54.76;99372.31;2075264;28;20007;-44
2022/06/26 03:43:20;;;;;;;;;;;;;;;24.92;54.60;99371.47;2076756;28;19920;-44
2022/06/26 03:44:21;;;;;;;;;;;;;;;24.92;54.62;99368.69;2075646;28;19909;-44
2022/06/26 03:45:21;;;;;;;;;;;;;;;24.92;54.80;99374.22;2084476;28;19921;-44
2022/06/26 03:46:22;;;;;;;;;;;;;;;24.91;54.84;99373.34;2079542;28;19917;-44
2022/06/26 03:47:22;;;;;;;;;;;;;;;24.91;54.67;99370.59;2079358;28;19987;-45
2022/06/26 03:48:23;;;;;;;;;;;;;;;24.91;54.57;99372.50;2076608;28;20384;-44
2022/06/26 03:49:23;;;;;;;;;;;;;;;24.91;54.79;99366.97;2074706;28;19924;-47
2022/06/26 03:50:24;;;;;;;;;;;;;;;24.90;54.70;99360.63;2072645;28;19917;-44
2022/06/26 03:51:24;;;;;;;;;;;;;;;24.90;54.80;99366.13;2075698;28;19928;-44
2022/06/26 03:52:25;;;;;;;;;;;;;;;24.90;54.62;99365.28;2072977;28;19917;-44
2022/06/26 03:53:26;;;;;;;;;;;;;;;24.90;54.68;99362.53;2079262;28;19916;-45
2022/06/26 03:54:27;;;;;;;;;;;;;;;24.91;54.70;99372.50;2071323;28;20252;-44
2022/06/26 03:55:27;;;;;;;;;;;;;;;24.90;54.84;99365.28;2074249;28;19917;-43
2022/06/26 03:56:27;;;;;;;;;;;;;;;24.90;54.80;99376.31;2074500;28;19913;-45
2022/06/26 03:57:28;;;;;;;;;;;;;;;24.89;54.66;99372.72;2071468;28;19920;-46
2022/06/26 03:58:28;;;;;;;;;;;;;;;24.89;54.73;99371.84;2076593;28;20371;-48
2022/06/26 03:59:28;;;;;;;;;;;;;;;24.89;54.64;99369.09;2074613;28;19968;-44
2022/06/26 04:00:29;;;;;;;;;;;;;;;24.89;54.75;99375.47;2073038;28;20302;-46
2022/06/26 04:01:30;;;;;;;;;;;;;;;24.89;54.78;99380.13;2075838;28;19920;-44
2022/06/26 04:02:30;;;;;;;;;;;;;;;24.90;54.84;99381.84;2076894;28;19916;-45
2022/06/26 04:03:30;;;;;;;;;;;;;;;24.89;54.89;99382.88;2070561;28;20300;-44
2022/06/26 04:04:31;;;;;;;;;;;;;;;24.90;54.72;99381.84;2069726;28;20343;-46
2022/06/26 04:05:32;;;;;;;;;;;;;;;24.89;54.80;99380.13;2076750;28;19958;-45
2022/06/26 04:06:32;;;;;;;;;;;;;;;24.89;54.74;99381.00;2072328;28;20076;-45
2022/06/26 04:07:32;;;;;;;;;;;;;;;24.89;54.75;99386.50;2076002;28;20239;-44
2022/06/26 04:08:33;;;;;;;;;;;;;;;24.89;54.78;99388.38;2069313;28;19956;-46
2022/06/26 04:09:33;;;;;;;;;;;;;;;24.89;54.79;99374.59;2073200;28;19960;-44
2022/06/26 04:10:34;;;;;;;;;;;;;;;24.89;54.88;99391.13;2076522;28;19921;-44
2022/06/26 04:11:34;;;;;;;;;;;;;;;24.89;54.88;99382.88;2071205;28;20251;-47
2022/06/26 04:12:34;;;;;;;;;;;;;;;24.89;54.72;99391.13;2075847;28;19921;-45
2022/06/26 04:13:35;;;;;;;;;;;;;;;24.89;54.78;99388.38;2073274;28;20608;-45
2022/06/26 04:14:35;;;;;;;;;;;;;;;24.89;54.88;99385.63;2074766;28;19935;-46
2022/06/26 04:15:36;;;;;;;;;;;;;;;24.89;54.83;99385.63;2076577;28;19916;-45
2022/06/26 04:16:37;;;;;;;;;;;;;;;24.89;54.78;99385.63;2074340;28;19928;-46
2022/06/26 04:17:37;;;;;;;;;;;;;;;24.88;54.79;99384.78;2070851;28;19927;-44
2022/06/26 04:18:37;;;;;;;;;;;;;;;24.88;54.86;99382.03;2077676;28;20332;-44
2022/06/26 04:19:38;;;;;;;;;;;;;;;24.88;54.82;99379.28;2074055;28;19920;-44
2022/06/26 04:20:38;;;;;;;;;;;;;;;24.89;54.72;99386.50;2069001;28;20308;-44
2022/06/26 04:21:39;;;;;;;;;;;;;;;24.88;54.83;99378.44;2073633;28;20306;-45
2022/06/26 04:22:39;;;;;;;;;;;;;;;24.89;54.79;99371.84;2073240;28;19925;-43
2022/06/26 04:23:39;;;;;;;;;;;;;;;24.88;55.00;99378.44;2077458;28;19936;-43
2022/06/26 04:24:40;;;;;;;;;;;;;;;24.87;54.75;99371.22;2076428;28;20787;-44
2022/06/26 04:25:41;;;;;;;;;;;;;;;24.87;54.89;99377.59;2077602;28;20327;-45
2022/06/26 04:26:41;;;;;;;;;;;;;;;24.87;54.73;99383.09;2076394;28;20537;-44
2022/06/26 04:27:41;;;;;;;;;;;;;;;24.87;54.91;99376.75;2077482;28;19985;-44
2022/06/26 04:28:42;;;;;;;;;;;;;;;24.86;54.74;99378.63;2067010;28;20203;-45
2022/06/26 04:29:42;;;;;;;;;;;;;;;24.87;54.66;99380.34;2068990;28;20020;-44
2022/06/26 04:30:42;;;;;;;;;;;;;;;24.86;54.69;99378.63;2077819;28;19928;-44
2022/06/26 04:31:43;;;;;;;;;;;;;;;24.87;54.94;99387.75;2075596;28;19912;-46
2022/06/26 04:32:43;;;;;;;;;;;;;;;24.87;54.82;99388.59;2078447;28;20338;-43
2022/06/26 04:33:43;;;;;;;;;;;;;;;24.86;54.88;99380.53;2076931;28;19924;-44
2022/06/26 04:34:44;;;;;;;;;;;;;;;24.86;54.82;99380.53;2076842;28;19955;-43
2022/06/26 04:35:44;;;;;;;;;;;;;;;24.85;54.79;99379.69;2080600;28;19928;-44
2022/06/26 04:36:45;;;;;;;;;;;;;;;24.84;54.87;99377.97;2076939;28;20123;-44
2022/06/26 04:37:46;;;;;;;;;;;;;;;24.86;54.97;99377.78;2073128;28;20750;-44
2022/06/26 04:38:47;;;;;;;;;;;;;;;24.85;54.89;99381.59;2075084;28;20284;-44
2022/06/26 04:39:47;;;;;;;;;;;;;;;24.85;54.83;99374.19;2076490;28;19962;-44
2022/06/26 04:40:47;;;;;;;;;;;;;;;24.85;54.82;99373.34;2073959;28;19917;-44
2022/06/26 04:41:47;;;;;;;;;;;;;;;24.85;54.90;99370.56;2079591;28;19917;-45
2022/06/26 04:42:48;;;;;;;;;;;;;;;24.85;54.90;99378.84;2072685;28;19936;-44
2022/06/26 04:43:48;;;;;;;;;;;;;;;24.85;54.82;99373.34;2076874;28;19916;-45
2022/06/26 04:44:48;;;;;;;;;;;;;;;24.86;55.09;99380.53;2078235;28;19962;-44
2022/06/26 04:45:49;;;;;;;;;;;;;;;24.85;54.88;99374.19;2075682;28;19912;-45
2022/06/26 04:46:49;;;;;;;;;;;;;;;24.85;54.94;99385.19;2076900;28;20011;-46
2022/06/26 04:47:50;;;;;;;;;;;;;;;24.86;54.78;99380.53;2077918;28;19920;-45
2022/06/26 04:48:51;;;;;;;;;;;;;;;24.84;54.82;99377.97;2076145;28;19917;-44
2022/06/26 04:49:51;;;;;;;;;;;;;;;24.85;54.97;99381.59;2077374;28;19993;-44
2022/06/26 04:50:51;;;;;;;;;;;;;;;24.85;55.03;99378.84;2071102;28;20264;-44
2022/06/26 04:51:51;;;;;;;;;;;;;;;24.85;54.87;99381.59;2074897;28;19968;-45
2022/06/26 04:52:52;;;;;;;;;;;;;;;24.84;54.77;99360.59;2076710;28;20257;-47
2022/06/26 04:53:52;;;;;;;;;;;;;;;24.85;54.87;99373.34;2078338;28;20570;-44
2022/06/26 04:54:53;;;;;;;;;;;;;;;24.84;54.88;99377.97;2084365;28;19970;-45
2022/06/26 04:55:53;;;;;;;;;;;;;;;24.85;54.97;99373.34;2075992;28;20519;-45
2022/06/26 04:56:53;;;;;;;;;;;;;;;24.84;54.80;99372.47;2076562;28;19921;-44
2022/06/26 04:57:53;;;;;;;;;;;;;;;24.84;55.01;99377.97;2085597;28;20816;-45
2022/06/26 04:58:54;;;;;;;;;;;;;;;24.84;54.97;99382.63;2072912;28;20279;-44
2022/06/26 04:59:55;;;;;;;;;;;;;;;24.85;54.98;99376.09;2076227;28;19994;-45
2022/06/26 05:00:55;;;;;;;;;;;;;;;24.84;54.99;99377.13;2076220;28;20495;-45
2022/06/26 05:01:55;;;;;;;;;;;;;;;24.85;54.99;99376.09;2072234;28;19924;-45
2022/06/26 05:02:56;;;;;;;;;;;;;;;24.84;54.93;99377.13;2077775;28;19917;-45
2022/06/26 05:03:56;;;;;;;;;;;;;;;24.84;55.00;99377.13;2078886;28;20299;-44
2022/06/26 05:04:56;;;;;;;;;;;;;;;24.84;54.86;99379.88;2080702;28;19952;-47
2022/06/26 05:05:57;;;;;;;;;;;;;;;24.84;54.93;99383.47;2082382;28;19921;-43
2022/06/26 05:06:57;;;;;;;;;;;;;;;24.83;54.86;99378.19;2076373;28;19917;-44
2022/06/26 05:07:57;;;;;;;;;;;;;;;24.84;54.83;99380.72;2076187;28;19960;-46
2022/06/26 05:08:58;;;;;;;;;;;;;;;24.84;55.00;99377.13;2075451;28;19919;-45
2022/06/26 05:09:58;;;;;;;;;;;;;;;24.83;55.06;99380.94;2077525;28;19924;-45
2022/06/26 05:10:59;;;;;;;;;;;;;;;24.83;55.06;99380.94;2079916;28;19931;-46
2022/06/26 05:11:59;;;;;;;;;;;;;;;24.83;54.98;99375.44;2077058;28;19920;-46
2022/06/26 05:12:59;;;;;;;;;;;;;;;24.82;54.92;99374.59;2070297;28;19917;-44
2022/06/26 05:14:00;;;;;;;;;;;;;;;24.81;54.85;99382.00;2065857;28;19928;-43
2022/06/26 05:15:00;;;;;;;;;;;;;;;24.83;54.98;99378.19;2077575;28;19921;-45
2022/06/26 05:16:01;;;;;;;;;;;;;;;24.82;54.86;99382.88;2079209;28;19955;-45
2022/06/26 05:17:01;;;;;;;;;;;;;;;24.81;54.84;99379.22;2077122;28;19951;-45
2022/06/26 05:18:01;;;;;;;;;;;;;;;24.81;55.15;99373.72;2079191;28;19920;-44
2022/06/26 05:19:02;;;;;;;;;;;;;;;24.82;54.91;99377.34;2077175;28;19913;-44
2022/06/26 05:20:03;;;;;;;;;;;;;;;24.82;55.05;99374.59;2067609;28;19925;-44
2022/06/26 05:21:03;;;;;;;;;;;;;;;24.82;54.96;99374.59;2075401;28;19920;-43